createdAt,value
2022-10-31T00:01:12.634Z,14.02
2022-10-31T00:03:40.713Z,14.00
2022-10-31T00:06:09.146Z,10.45
2022-10-31T00:08:37.512Z,8.48
2022-10-31T00:11:05.930Z,13.30
2022-10-31T00:13:35.479Z,2.83
2022-10-31T00:16:03.553Z,5.68
2022-10-31T00:18:31.738Z,11.73
2022-10-31T00:21:03.207Z,7.50
2022-10-31T00:23:31.339Z,14.02
2022-10-31T00:26:03.081Z,8.10
2022-10-31T00:28:32.994Z,13.68
2022-10-31T00:31:04.322Z,10.38
2022-10-31T00:33:32.943Z,13.85
2022-10-31T00:36:00.986Z,14.85
2022-10-31T00:38:29.148Z,8.15
2022-10-31T00:40:57.443Z,9.45
2022-10-31T00:43:25.778Z,18.42
2022-10-31T00:45:53.892Z,15.45
2022-10-31T00:48:23.352Z,16.08
2022-10-31T00:50:51.475Z,9.90
2022-10-31T00:53:19.618Z,13.57
2022-10-31T00:55:47.836Z,9.07
2022-10-31T00:58:16.225Z,15.93
2022-10-31T01:00:46.813Z,11.35
2022-10-31T01:03:17.649Z,10.60
2022-10-31T01:05:47.232Z,14.52
2022-10-31T01:08:15.439Z,10.88
2022-10-31T01:10:43.579Z,7.68
2022-10-31T01:13:11.863Z,13.60
2022-10-31T01:15:40.037Z,17.63
2022-10-31T01:18:08.204Z,16.65
2022-10-31T01:20:36.434Z,13.55
2022-10-31T01:23:06.048Z,15.25
2022-10-31T01:25:34.226Z,11.63
2022-10-31T01:28:02.628Z,10.73
2022-10-31T01:30:30.927Z,10.98
2022-10-31T01:32:59.756Z,12.95
2022-10-31T01:35:28.000Z,18.10
2022-10-31T01:37:56.592Z,12.10
2022-10-31T01:40:26.114Z,15.95
2022-10-31T01:42:54.606Z,17.27
2022-10-31T01:45:22.996Z,16.45
2022-10-31T01:47:52.070Z,7.25
2022-10-31T01:50:30.881Z,17.20
2022-10-31T01:53:02.061Z,12.55
2022-10-31T01:55:35.369Z,7.65
2022-10-31T01:58:08.661Z,10.10
2022-10-31T02:00:37.419Z,11.50
2022-10-31T02:03:05.584Z,9.90
2022-10-31T02:05:34.711Z,12.38
2022-10-31T02:08:06.885Z,8.82
2022-10-31T02:10:38.428Z,17.40
2022-10-31T02:15:38.577Z,8.13
2022-10-31T02:18:07.944Z,10.70
2022-10-31T02:20:44.657Z,8.50
2022-10-31T02:23:50.431Z,14.27
2022-10-31T02:26:46.063Z,19.88
2022-10-31T02:29:55.459Z,14.35
2022-10-31T02:32:30.243Z,16.08
2022-10-31T02:35:06.414Z,10.02
2022-10-31T02:37:39.808Z,15.23
2022-10-31T02:40:17.152Z,15.98
2022-10-31T02:42:51.726Z,15.70
2022-10-31T02:45:29.647Z,16.55
2022-10-31T02:48:04.218Z,12.73
2022-10-31T02:50:36.091Z,14.70
2022-10-31T02:53:05.156Z,22.83
2022-10-31T02:55:57.187Z,10.55
2022-10-31T02:58:28.583Z,12.13
2022-10-31T03:01:20.622Z,17.08
2022-10-31T03:04:05.149Z,11.95
2022-10-31T03:06:37.600Z,19.80
2022-10-31T03:09:15.097Z,10.30
2022-10-31T03:11:49.003Z,16.10
2022-10-31T03:14:23.945Z,13.80
2022-10-31T03:16:54.332Z,15.05
2022-10-31T03:19:28.707Z,13.02
2022-10-31T03:22:01.093Z,19.60
2022-10-31T03:24:40.647Z,11.65
2022-10-31T03:27:12.513Z,8.90
2022-10-31T03:29:44.293Z,17.25
2022-10-31T03:32:16.853Z,13.48
2022-10-31T03:34:48.175Z,17.70
2022-10-31T03:37:21.133Z,21.58
2022-10-31T03:39:51.537Z,22.85
2022-10-31T03:42:24.286Z,13.20
2022-10-31T03:44:58.624Z,14.65
2022-10-31T03:47:27.689Z,18.25
2022-10-31T03:49:57.964Z,13.80
2022-10-31T03:52:30.419Z,14.35
2022-10-31T03:55:03.266Z,11.50
2022-10-31T03:57:37.503Z,19.02
2022-10-31T04:00:08.638Z,20.73
2022-10-31T04:02:43.042Z,8.45
2022-10-31T04:05:14.652Z,13.27
2022-10-31T04:07:47.435Z,8.93
2022-10-31T04:10:17.829Z,16.88
2022-10-31T04:12:52.160Z,14.93
2022-10-31T04:15:21.775Z,13.07
2022-10-31T04:17:52.624Z,19.67
2022-10-31T04:20:32.409Z,8.27
2022-10-31T04:23:01.780Z,11.95
2022-10-31T04:25:29.889Z,11.65
2022-10-31T04:27:58.311Z,13.50
2022-10-31T04:30:26.765Z,15.18
2022-10-31T04:32:54.867Z,13.50
2022-10-31T04:35:24.470Z,13.10
2022-10-31T04:37:52.647Z,9.90
2022-10-31T04:40:20.837Z,11.88
2022-10-31T04:42:49.071Z,13.45
2022-10-31T04:45:20.247Z,12.98
2022-10-31T04:47:49.819Z,12.48
2022-10-31T04:50:18.406Z,12.95
2022-10-31T04:52:48.572Z,12.80
2022-10-31T04:55:17.109Z,15.38
2022-10-31T04:57:45.987Z,8.13
2022-10-31T05:00:16.684Z,11.85
2022-10-31T05:02:46.301Z,12.10
2022-10-31T05:05:15.120Z,17.70
2022-10-31T05:07:44.335Z,16.98
2022-10-31T05:10:16.344Z,14.85
2022-10-31T05:12:49.151Z,13.10
2022-10-31T05:15:18.173Z,19.67
2022-10-31T05:17:47.072Z,7.50
2022-10-31T05:20:16.654Z,6.80
2022-10-31T05:22:45.694Z,14.27
2022-10-31T05:25:15.778Z,8.50
2022-10-31T05:27:45.704Z,10.38
2022-10-31T05:30:16.382Z,13.02
2022-10-31T05:32:46.096Z,10.27
2022-10-31T05:35:16.109Z,9.52
2022-10-31T05:37:44.638Z,8.88
2022-10-31T05:40:16.402Z,10.77
2022-10-31T05:42:45.787Z,12.15
2022-10-31T05:45:16.041Z,7.65
2022-10-31T05:47:44.554Z,5.78
2022-10-31T05:50:12.787Z,9.57
2022-10-31T05:52:40.959Z,10.65
2022-10-31T05:55:09.692Z,11.05
2022-10-31T05:57:39.173Z,11.18
2022-10-31T06:00:08.599Z,15.27
2022-10-31T06:02:36.652Z,11.50
2022-10-31T06:05:05.133Z,13.25
2022-10-31T06:07:37.332Z,14.40
2022-10-31T06:10:07.512Z,14.32
2022-10-31T06:12:38.539Z,12.82
2022-10-31T06:15:10.345Z,13.90
2022-10-31T06:17:38.786Z,14.35
2022-10-31T06:20:08.664Z,12.23
2022-10-31T06:22:36.807Z,15.10
2022-10-31T06:25:05.470Z,16.23
2022-10-31T06:27:33.751Z,21.83
2022-10-31T06:30:01.858Z,14.02
2022-10-31T06:32:31.397Z,14.55
2022-10-31T06:34:59.496Z,19.63
2022-10-31T06:37:27.635Z,19.83
2022-10-31T06:39:55.808Z,19.23
2022-10-31T06:42:23.926Z,20.17
2022-10-31T06:44:52.073Z,22.13
2022-10-31T06:47:20.240Z,12.90
2022-10-31T06:49:50.112Z,9.43
2022-10-31T06:52:18.239Z,18.20
2022-10-31T06:54:46.604Z,16.98
2022-10-31T06:57:14.718Z,16.08
2022-10-31T06:59:42.858Z,11.35
2022-10-31T07:02:12.226Z,15.63
2022-10-31T07:04:40.353Z,11.30
2022-10-31T07:07:10.012Z,16.67
2022-10-31T07:09:38.212Z,14.07
2022-10-31T07:12:06.601Z,19.50
2022-10-31T07:14:34.778Z,10.75
2022-10-31T07:17:02.859Z,17.90
2022-10-31T07:19:31.131Z,9.30
2022-10-31T07:21:59.492Z,14.80
2022-10-31T07:24:29.083Z,10.43
2022-10-31T07:26:57.318Z,12.68
2022-10-31T07:29:25.512Z,13.75
2022-10-31T07:31:54.184Z,20.58
2022-10-31T07:34:22.374Z,17.35
2022-10-31T07:36:53.048Z,15.68
2022-10-31T07:39:21.154Z,20.97
2022-10-31T07:41:50.612Z,14.27
2022-10-31T07:44:18.740Z,10.30
2022-10-31T07:46:46.815Z,20.80
2022-10-31T07:49:14.942Z,14.40
2022-10-31T07:51:46.441Z,8.73
2022-10-31T07:54:15.285Z,11.55
2022-10-31T07:56:43.576Z,16.38
2022-10-31T07:59:13.081Z,11.70
2022-10-31T08:01:41.093Z,15.15
2022-10-31T08:04:09.412Z,15.52
2022-10-31T08:06:37.540Z,15.82
2022-10-31T08:09:05.773Z,15.88
2022-10-31T08:11:33.871Z,9.93
2022-10-31T08:14:01.917Z,15.90
2022-10-31T08:16:31.540Z,12.07
2022-10-31T08:18:59.704Z,15.68
2022-10-31T08:21:27.886Z,29.13
2022-10-31T08:23:55.997Z,14.02
2022-10-31T08:26:24.254Z,16.80
2022-10-31T08:28:53.575Z,11.10
2022-10-31T08:31:32.160Z,15.15
2022-10-31T08:34:03.589Z,17.92
2022-10-31T08:36:31.866Z,18.60
2022-10-31T08:39:02.064Z,12.45
2022-10-31T08:41:31.048Z,14.52
2022-10-31T08:43:59.165Z,15.85
2022-10-31T08:46:27.269Z,15.98
2022-10-31T08:48:55.460Z,15.75
2022-10-31T08:51:24.913Z,18.65
2022-10-31T08:53:53.118Z,14.80
2022-10-31T08:56:21.356Z,12.80
2022-10-31T08:58:49.577Z,15.90
2022-10-31T09:01:17.828Z,19.40
2022-10-31T09:03:46.129Z,19.02
2022-10-31T09:06:14.329Z,16.98
2022-10-31T09:08:44.091Z,25.35
2022-10-31T09:11:12.273Z,20.02
2022-10-31T09:13:41.555Z,14.75
2022-10-31T09:16:09.969Z,17.85
2022-10-31T09:18:38.212Z,19.13
2022-10-31T09:21:06.665Z,18.27
2022-10-31T09:23:34.760Z,23.60
2022-10-31T09:26:04.652Z,17.10
2022-10-31T09:28:33.821Z,14.25
2022-10-31T09:31:02.110Z,17.48
2022-10-31T09:33:30.384Z,11.43
2022-10-31T09:36:00.497Z,12.18
2022-10-31T09:38:28.632Z,12.65
2022-10-31T09:41:10.063Z,13.48
2022-10-31T09:43:49.596Z,21.52
2022-10-31T09:46:28.803Z,13.23
2022-10-31T09:49:18.793Z,21.50
2022-10-31T09:51:53.335Z,23.15
2022-10-31T09:54:28.795Z,17.55
2022-10-31T09:57:01.308Z,15.80
2022-10-31T09:59:34.998Z,14.93
2022-10-31T10:02:07.208Z,19.85
2022-10-31T10:04:45.647Z,16.25
2022-10-31T10:07:21.516Z,18.15
2022-10-31T10:09:49.772Z,16.73
2022-10-31T10:12:35.084Z,13.68
2022-10-31T10:15:26.481Z,14.05
2022-10-31T10:18:02.944Z,16.00
2022-10-31T10:20:38.355Z,12.75
2022-10-31T10:23:25.808Z,16.27
2022-10-31T10:26:02.877Z,10.00
2022-10-31T10:28:39.460Z,18.13
2022-10-31T10:31:12.632Z,16.77
2022-10-31T10:33:44.828Z,8.50
2022-10-31T10:36:20.542Z,14.90
2022-10-31T10:38:54.679Z,14.63
2022-10-31T10:41:29.320Z,11.57
2022-10-31T10:44:01.653Z,15.77
2022-10-31T10:46:57.025Z,12.63
2022-10-31T10:49:32.336Z,17.90
2022-10-31T10:52:19.457Z,14.55
2022-10-31T10:54:59.279Z,15.25
2022-10-31T10:57:41.823Z,14.52
2022-10-31T11:00:21.448Z,12.40
2022-10-31T11:02:50.442Z,15.73
2022-10-31T11:05:27.008Z,17.20
2022-10-31T11:07:55.339Z,20.88
2022-10-31T11:10:23.673Z,13.30
2022-10-31T11:13:09.125Z,21.60
2022-10-31T11:15:51.594Z,17.73
2022-10-31T11:20:55.591Z,18.23
2022-10-31T11:23:25.688Z,11.30
2022-10-31T11:25:57.101Z,24.40
2022-10-31T11:30:58.161Z,19.10
2022-10-31T11:33:31.899Z,20.10
2022-10-31T11:36:00.973Z,18.73
2022-10-31T11:38:35.793Z,17.08
2022-10-31T11:41:12.659Z,14.35
2022-10-31T11:43:47.586Z,23.25
2022-10-31T11:46:23.517Z,18.00
2022-10-31T11:48:54.847Z,17.95
2022-10-31T11:51:24.300Z,14.52
2022-10-31T11:53:58.222Z,16.23
2022-10-31T11:56:38.789Z,21.90
2022-10-31T11:59:16.992Z,26.83
2022-10-31T12:01:52.733Z,25.02
2022-10-31T12:04:25.574Z,20.27
2022-10-31T12:06:55.994Z,12.80
2022-10-31T12:09:26.443Z,16.67
2022-10-31T12:12:08.972Z,13.77
2022-10-31T12:14:46.294Z,17.40
2022-10-31T12:17:18.166Z,15.25
2022-10-31T12:20:00.534Z,14.75
2022-10-31T12:22:38.666Z,17.55
2022-10-31T12:25:22.546Z,13.23
2022-10-31T12:28:06.188Z,20.73
2022-10-31T12:30:48.907Z,17.60
2022-10-31T12:33:32.069Z,18.83
2022-10-31T12:36:15.426Z,16.30
2022-10-31T12:39:04.598Z,18.42
2022-10-31T12:41:48.282Z,13.88
2022-10-31T12:44:38.143Z,19.08
2022-10-31T12:47:27.929Z,14.48
2022-10-31T12:50:11.160Z,17.15
2022-10-31T12:52:53.932Z,17.98
2022-10-31T12:55:42.920Z,22.63
2022-10-31T12:58:16.792Z,15.15
2022-10-31T13:00:50.826Z,21.13
2022-10-31T13:03:30.100Z,18.30
2022-10-31T13:06:05.676Z,20.23
2022-10-31T13:08:42.751Z,16.77
2022-10-31T13:11:15.346Z,17.55
2022-10-31T13:13:49.513Z,20.92
2022-10-31T13:16:20.858Z,17.38
2022-10-31T13:18:55.553Z,30.13
2022-10-31T13:21:27.919Z,14.07
2022-10-31T13:24:00.152Z,13.35
2022-10-31T13:26:39.117Z,20.70
2022-10-31T13:29:17.361Z,22.92
2022-10-31T13:31:46.051Z,12.50
2022-10-31T13:34:25.345Z,16.70
2022-10-31T13:37:04.163Z,24.15
2022-10-31T13:39:52.096Z,13.15
2022-10-31T13:42:26.193Z,17.10
2022-10-31T13:44:54.430Z,13.02
2022-10-31T13:47:28.337Z,19.13
2022-10-31T13:50:22.155Z,18.13
2022-10-31T13:52:51.743Z,14.73
2022-10-31T13:55:43.659Z,16.95
2022-10-31T13:58:25.988Z,13.25
2022-10-31T14:01:19.641Z,17.10
2022-10-31T14:04:06.164Z,19.27
2022-10-31T14:06:42.184Z,20.10
2022-10-31T14:09:24.600Z,10.35
2022-10-31T14:11:53.291Z,15.43
2022-10-31T14:14:23.062Z,15.88
2022-10-31T14:16:57.583Z,12.07
2022-10-31T14:19:26.999Z,14.65
2022-10-31T14:21:55.236Z,18.10
2022-10-31T14:24:36.914Z,16.33
2022-10-31T14:27:26.898Z,15.27
2022-10-31T14:29:55.308Z,14.40
2022-10-31T14:32:25.445Z,22.58
2022-10-31T14:34:56.329Z,18.15
2022-10-31T14:37:47.433Z,12.65
2022-10-31T14:40:38.068Z,15.15
2022-10-31T14:43:33.520Z,11.15
2022-10-31T14:46:04.801Z,16.75
2022-10-31T14:49:00.537Z,17.45
2022-10-31T14:51:37.511Z,13.32
2022-10-31T14:54:08.617Z,14.38
2022-10-31T14:56:44.315Z,19.23
2022-10-31T14:59:18.714Z,23.95
2022-10-31T15:01:58.313Z,15.30
2022-10-31T15:04:29.207Z,14.40
2022-10-31T15:07:04.588Z,16.38
2022-10-31T15:09:34.491Z,18.88
2022-10-31T15:12:24.970Z,14.13
2022-10-31T15:14:53.761Z,13.38
2022-10-31T15:17:22.647Z,16.52
2022-10-31T15:19:51.111Z,11.48
2022-10-31T15:22:21.586Z,12.05
2022-10-31T15:24:57.122Z,13.93
2022-10-31T15:27:27.380Z,16.42
2022-10-31T15:29:57.045Z,15.65
2022-10-31T15:32:26.910Z,14.05
2022-10-31T15:34:56.876Z,19.08
2022-10-31T15:37:26.532Z,20.92
2022-10-31T15:39:55.301Z,16.00
2022-10-31T15:42:27.095Z,23.15
2022-10-31T15:45:02.095Z,12.60
2022-10-31T15:47:33.057Z,7.80
2022-10-31T15:50:02.927Z,9.68
2022-10-31T15:52:34.854Z,6.22
2022-10-31T15:55:06.348Z,8.45
2022-10-31T15:57:35.881Z,8.93
2022-10-31T16:00:06.197Z,10.05
2022-10-31T16:02:34.518Z,6.65
2022-10-31T16:05:03.814Z,8.80
2022-10-31T16:07:32.540Z,5.95
2022-10-31T16:10:02.056Z,12.73
2022-10-31T16:12:33.958Z,7.65
2022-10-31T16:15:02.899Z,13.98
2022-10-31T16:17:33.628Z,7.93
2022-10-31T16:20:04.237Z,18.43
2022-10-31T16:22:34.993Z,13.93
2022-10-31T16:25:07.584Z,14.97
2022-10-31T16:27:38.930Z,13.27
2022-10-31T16:30:31.103Z,10.70
2022-10-31T16:33:02.829Z,11.60
2022-10-31T16:35:36.004Z,13.25
2022-10-31T16:38:04.589Z,9.65
2022-10-31T16:40:34.016Z,9.02
2022-10-31T16:43:03.498Z,10.95
2022-10-31T16:45:33.357Z,12.52
2022-10-31T16:48:06.476Z,12.88
2022-10-31T16:50:35.321Z,12.95
2022-10-31T16:53:18.717Z,9.43
2022-10-31T16:55:57.330Z,7.38
2022-10-31T16:58:28.193Z,11.68
2022-10-31T17:00:56.524Z,16.88
2022-10-31T17:03:26.406Z,12.18
2022-10-31T17:05:56.199Z,15.23
2022-10-31T17:08:24.980Z,12.43
2022-10-31T17:10:54.495Z,12.52
2022-10-31T17:13:26.793Z,11.85
2022-10-31T17:15:58.006Z,16.50
2022-10-31T17:18:28.122Z,13.98
2022-10-31T17:20:59.191Z,24.63
2022-10-31T17:23:38.142Z,19.08
2022-10-31T17:26:09.019Z,18.08
2022-10-31T17:28:37.456Z,19.60
2022-10-31T17:31:06.639Z,21.30
2022-10-31T17:33:36.708Z,21.75
2022-10-31T17:36:05.663Z,24.55
2022-10-31T17:38:34.100Z,19.83
2022-10-31T17:41:11.099Z,27.65
2022-10-31T17:43:40.080Z,24.27
2022-10-31T17:46:08.476Z,25.48
2022-10-31T17:48:39.129Z,20.73
2022-10-31T17:51:08.509Z,28.13
2022-10-31T17:53:36.752Z,21.27
2022-10-31T17:56:06.285Z,23.83
2022-10-31T17:58:36.241Z,24.25
2022-10-31T18:01:11.174Z,19.42
2022-10-31T18:03:41.156Z,27.58
2022-10-31T18:06:11.054Z,31.25
2022-10-31T18:08:41.110Z,32.90
2022-10-31T18:11:11.023Z,27.88
2022-10-31T18:13:39.843Z,36.13
2022-10-31T18:16:12.134Z,26.65
2022-10-31T18:18:42.356Z,29.13
2022-10-31T18:21:10.573Z,24.60
2022-10-31T18:23:38.734Z,21.48
2022-10-31T18:26:06.925Z,29.20
2022-10-31T18:28:35.198Z,20.45
2022-10-31T18:31:04.048Z,26.00
2022-10-31T18:33:32.191Z,27.10
2022-10-31T18:36:07.247Z,30.65
2022-10-31T18:38:35.558Z,25.27
2022-10-31T18:41:03.560Z,24.05
2022-10-31T18:43:31.724Z,24.00
2022-10-31T18:46:02.618Z,20.98
2022-10-31T18:48:31.489Z,19.63
2022-10-31T18:51:05.887Z,22.30
2022-10-31T18:53:36.357Z,23.88
2022-10-31T18:56:08.832Z,32.53
2022-10-31T18:58:37.180Z,27.67
2022-10-31T19:01:08.618Z,33.42
2022-10-31T19:03:37.606Z,27.67
2022-10-31T19:06:07.074Z,20.38
2022-10-31T19:08:37.560Z,16.05
2022-10-31T19:11:07.159Z,24.15
2022-10-31T19:13:35.770Z,18.65
2022-10-31T19:16:09.746Z,25.55
2022-10-31T19:18:38.684Z,23.98
2022-10-31T19:21:07.929Z,15.32
2022-10-31T19:23:37.756Z,10.63
2022-10-31T19:26:06.698Z,22.40
2022-10-31T19:28:36.697Z,15.75
2022-10-31T19:31:05.605Z,22.45
2022-10-31T19:33:36.128Z,15.32
2022-10-31T19:36:08.377Z,26.83
2022-10-31T19:38:39.116Z,13.52
2022-10-31T19:41:09.365Z,22.30
2022-10-31T19:43:37.570Z,20.02
2022-10-31T19:46:17.415Z,27.80
2022-10-31T19:48:57.419Z,28.92
2022-10-31T19:51:25.601Z,26.95
2022-10-31T19:53:55.667Z,26.45
2022-10-31T19:56:25.370Z,35.13
2022-10-31T19:58:53.581Z,35.90
2022-10-31T20:01:23.435Z,33.63
2022-10-31T20:03:52.795Z,63.60
2022-10-31T20:06:23.908Z,87.80
2022-10-31T20:08:52.882Z,82.25
2022-10-31T20:11:23.164Z,83.78
2022-10-31T20:13:51.540Z,80.55
2022-10-31T20:16:19.872Z,71.05
2022-10-31T20:18:48.137Z,63.30
2022-10-31T20:21:18.816Z,49.13
2022-10-31T20:23:47.586Z,30.75
2022-10-31T20:26:19.401Z,31.38
2022-10-31T20:28:49.250Z,32.83
2022-10-31T20:31:19.702Z,47.10
2022-10-31T20:33:47.844Z,56.75
2022-10-31T20:36:19.619Z,55.40
2022-10-31T20:38:48.703Z,47.72
2022-10-31T20:41:17.656Z,45.38
2022-10-31T20:43:46.081Z,41.53
2022-10-31T20:46:17.947Z,41.90
2022-10-31T20:48:47.077Z,43.22
2022-10-31T20:51:17.227Z,35.70
2022-10-31T20:53:45.344Z,35.63
2022-10-31T20:56:15.263Z,33.45
2022-10-31T20:58:44.603Z,21.80
2022-10-31T21:01:17.016Z,11.90
2022-10-31T21:03:46.216Z,11.77
2022-10-31T21:06:15.022Z,14.23
2022-10-31T21:08:44.569Z,17.30
2022-10-31T21:11:14.568Z,18.95
2022-10-31T21:13:44.357Z,13.15
2022-10-31T21:16:14.006Z,14.18
2022-10-31T21:18:45.392Z,17.88
2022-10-31T21:21:17.785Z,24.05
2022-10-31T21:23:46.011Z,29.88
2022-10-31T21:26:19.230Z,33.67
2022-10-31T21:28:47.757Z,36.40
2022-10-31T21:31:17.963Z,31.88
2022-10-31T21:33:48.019Z,29.65
2022-10-31T21:36:17.400Z,28.42
2022-10-31T21:38:45.520Z,28.45
2022-10-31T21:41:15.828Z,22.63
2022-10-31T21:43:45.617Z,24.25
2022-10-31T21:46:16.138Z,22.50
2022-10-31T21:48:44.745Z,14.32
2022-10-31T21:51:16.563Z,16.75
2022-10-31T21:54:02.371Z,17.20
2022-10-31T21:56:30.676Z,16.83
2022-10-31T21:58:58.828Z,19.52
2022-10-31T22:01:29.190Z,17.52
2022-10-31T22:03:57.528Z,21.10
2022-10-31T22:06:28.468Z,24.27
2022-10-31T22:08:59.942Z,28.15
2022-10-31T22:11:29.233Z,40.25
2022-10-31T22:13:59.821Z,46.95
2022-10-31T22:16:29.838Z,45.28
2022-10-31T22:18:59.681Z,46.30
2022-10-31T22:21:29.987Z,53.17
2022-10-31T22:24:03.358Z,48.20
2022-10-31T22:26:33.338Z,48.25
2022-10-31T22:29:05.090Z,45.40
2022-10-31T22:31:34.309Z,40.08
2022-10-31T22:34:02.804Z,38.00
2022-10-31T22:36:33.309Z,34.70
2022-10-31T22:39:01.629Z,33.97
2022-10-31T22:41:33.491Z,29.00
2022-10-31T22:44:02.995Z,30.30
2022-10-31T22:46:32.884Z,33.83
2022-10-31T22:49:02.503Z,37.08
2022-10-31T22:51:34.376Z,36.35
2022-10-31T22:54:02.626Z,36.78
2022-10-31T22:56:33.359Z,36.90
2022-10-31T22:59:02.773Z,34.95
2022-10-31T23:01:33.112Z,38.70
2022-10-31T23:04:01.942Z,34.55
2022-10-31T23:06:32.684Z,38.28
2022-10-31T23:09:01.546Z,37.87
2022-10-31T23:11:33.436Z,34.30
2022-10-31T23:14:13.911Z,29.48
2022-10-31T23:16:45.122Z,30.57
2022-10-31T23:19:16.224Z,28.92
2022-10-31T23:21:59.841Z,28.08
2022-10-31T23:24:35.660Z,35.03
2022-10-31T23:27:09.816Z,32.92
2022-10-31T23:29:44.493Z,35.75
2022-10-31T23:32:16.444Z,35.85
2022-10-31T23:34:45.241Z,32.65
2022-10-31T23:37:16.211Z,30.60
2022-10-31T23:39:44.696Z,34.53
2022-10-31T23:42:13.872Z,36.50
2022-10-31T23:44:42.112Z,37.47
2022-10-31T23:47:10.342Z,33.83
2022-10-31T23:49:38.602Z,29.67
2022-10-31T23:52:07.278Z,32.47
2022-10-31T23:54:37.121Z,30.63
2022-10-31T23:57:05.716Z,29.70
2022-10-31T23:59:34.106Z,30.88
